EmailTwitter


Observations de surface / France / LFBO (07630)

Régions: Québec | Canada | États-Unis | Europe | France | UK | Ailleurs
Station
Affichage
Infos & localisation pour LFBO (07630) | Aide pour décoder les METARs

Observations prises le 2020-04-06 à 15H30 UTC à TOULOUSE/BLAGNAC, FR (LFBO)

Température: 18.0 Celsius

Point de rosée: 0.0 Celsius

Humidité relative: 30%

Vents: Sud-est à 30 km/h ou 16 noeuds.

Pression au niveau moyen de la mer: 102.20 kilopascals.

Observation METAR:

LFBO 061530Z AUTO 13016KT CAVOK 18/00 Q1022 TEMPO 14015G25KT SCT070TCU=